Time;durP1;ratioP1;P1;durP2;ratioP2;P2;SDS_P1;SDS_P2;PMS_P1;PMS_P2;Temp;Humidity;BMP_temperature;BMP_pressure;BME280_temperature;BME280_humidity;BME280_pressure;Samples;Min_cycle;Max_cycle;Signal;HPM_P1;HPM_P2
2022/07/26 00:01:05;;;;;;;3.53;1.10;;;;;;;;;;5037537;28;92967;-49
2022/07/26 00:03:33;;;;;;;2.70;0.70;;;;;;;;;;5038576;28;92054;-50
2022/07/26 00:06:01;;;;;;;4.13;0.87;;;;;;;;;;5037871;28;92083;-50
2022/07/26 00:08:30;;;;;;;4.13;0.60;;;;;;;;;;5037790;28;95279;-49
2022/07/26 00:10:59;;;;;;;1.87;0.70;;;;;;;;;;5038423;28;94895;-50
2022/07/26 00:13:34;;;;;;;1.27;0.50;;;;;;;;;;5038640;28;92103;-49
2022/07/26 00:16:03;;;;;;;1.70;0.73;;;;;;;;;;5039096;28;91904;-49
2022/07/26 00:18:31;;;;;;;1.83;0.70;;;;;;;;;;5038376;28;93906;-49
2022/07/26 00:21:00;;;;;;;1.00;0.70;;;;;;;;;;5037868;28;93850;-51
2022/07/26 00:23:28;;;;;;;1.43;0.73;;;;;;;;;;5039326;28;92050;-49
2022/07/26 00:25:56;;;;;;;0.70;0.40;;;;;;;;;;5038667;28;91295;-49
2022/07/26 00:28:26;;;;;;;1.57;0.70;;;;;;;;;;5038137;28;94233;-51
2022/07/26 00:30:54;;;;;;;1.97;0.63;;;;;;;;;;5037934;28;92897;-49
2022/07/26 00:33:22;;;;;;;1.00;0.40;;;;;;;;;;5037713;28;93064;-50
2022/07/26 00:35:51;;;;;;;0.73;0.60;;;;;;;;;;5038425;28;92057;-49
2022/07/26 00:38:19;;;;;;;1.43;0.60;;;;;;;;;;5037961;28;93330;-49
2022/07/26 00:40:47;;;;;;;0.80;0.40;;;;;;;;;;5038194;28;92087;-49
2022/07/26 00:43:16;;;;;;;0.60;0.43;;;;;;;;;;5038341;28;92097;-49
2022/07/26 00:45:45;;;;;;;1.17;0.53;;;;;;;;;;5038690;28;92036;-49
2022/07/26 00:48:14;;;;;;;0.93;0.40;;;;;;;;;;5038004;28;91962;-49
2022/07/26 00:50:42;;;;;;;1.47;0.43;;;;;;;;;;5038206;28;91488;-48
2022/07/26 00:53:11;;;;;;;0.93;0.63;;;;;;;;;;5038261;28;92048;-49
2022/07/26 00:55:39;;;;;;;1.50;0.60;;;;;;;;;;5037800;28;92138;-50
2022/07/26 00:58:07;;;;;;;3.00;0.67;;;;;;;;;;5037477;28;95053;-49
2022/07/26 01:00:35;;;;;;;1.93;0.80;;;;;;;;;;5038380;27;94980;-50
2022/07/26 01:03:05;;;;;;;0.77;0.40;;;;;;;;;;5042207;28;91891;-49
2022/07/26 01:05:34;;;;;;;0.60;0.40;;;;;;;;;;5041937;28;92016;-49
2022/07/26 01:08:02;;;;;;;1.60;0.60;;;;;;;;;;5041805;28;93233;-51
2022/07/26 01:10:30;;;;;;;1.93;0.50;;;;;;;;;;5041354;28;94002;-51
2022/07/26 01:12:59;;;;;;;2.10;0.43;;;;;;;;;;5040973;28;92039;-51
2022/07/26 01:15:27;;;;;;;1.57;0.63;;;;;;;;;;5041898;28;91346;-51
2022/07/26 01:17:55;;;;;;;1.10;0.50;;;;;;;;;;5038929;28;93235;-51
2022/07/26 01:20:25;;;;;;;0.37;0.37;;;;;;;;;;5041046;28;93891;-50
2022/07/26 01:22:55;;;;;;;2.43;0.50;;;;;;;;;;5040468;28;93051;-49
2022/07/26 01:25:29;;;;;;;1.30;0.50;;;;;;;;;;5040783;28;92059;-51
2022/07/26 01:27:57;;;;;;;1.77;0.80;;;;;;;;;;5040431;28;94271;-51
2022/07/26 01:30:25;;;;;;;5.97;0.60;;;;;;;;;;5040256;28;92857;-50
2022/07/26 01:32:54;;;;;;;0.93;0.60;;;;;;;;;;5040246;28;92128;-49
2022/07/26 01:35:22;;;;;;;0.60;0.60;;;;;;;;;;5040901;28;92093;-49
2022/07/26 01:37:50;;;;;;;1.50;0.60;;;;;;;;;;5040570;28;93050;-49
2022/07/26 01:40:20;;;;;;;0.50;0.50;;;;;;;;;;5040962;28;92829;-50
2022/07/26 01:42:48;;;;;;;2.13;0.50;;;;;;;;;;5040153;28;91961;-49
2022/07/26 01:45:16;;;;;;;2.07;0.63;;;;;;;;;;5041333;28;92141;-49
2022/07/26 01:47:48;;;;;;;1.40;0.60;;;;;;;;;;5040650;28;95298;-49
2022/07/26 01:50:17;;;;;;;1.03;0.53;;;;;;;;;;5040614;28;93860;-49
2022/07/26 01:52:45;;;;;;;2.07;0.70;;;;;;;;;;5041194;28;92015;-49
2022/07/26 01:55:13;;;;;;;1.80;0.83;;;;;;;;;;5039587;28;92059;-49
2022/07/26 01:57:44;;;;;;;2.37;1.00;;;;;;;;;;5041036;28;93294;-49
2022/07/26 02:00:13;;;;;;;0.83;0.50;;;;;;;;;;5040733;28;93117;-49
2022/07/26 02:02:41;;;;;;;1.20;1.00;;;;;;;;;;5040558;28;92053;-49
2022/07/26 02:05:10;;;;;;;0.67;0.67;;;;;;;;;;5040810;28;91251;-50
2022/07/26 02:07:39;;;;;;;0.53;0.53;;;;;;;;;;5040344;28;93110;-49
2022/07/26 02:10:12;;;;;;;5.70;0.70;;;;;;;;;;5040187;28;92796;-49
2022/07/26 02:12:41;;;;;;;0.50;0.50;;;;;;;;;;5039393;28;92685;-49
2022/07/26 02:15:13;;;;;;;1.67;0.77;;;;;;;;;;5039747;28;92030;-49
2022/07/26 02:17:42;;;;;;;2.13;0.77;;;;;;;;;;5039346;28;93309;-49
2022/07/26 02:20:10;;;;;;;1.50;0.83;;;;;;;;;;5040009;28;92822;-49
2022/07/26 02:22:39;;;;;;;1.70;1.07;;;;;;;;;;5040211;28;92030;-49
2022/07/26 02:25:07;;;;;;;2.43;0.83;;;;;;;;;;5040408;28;92034;-50
2022/07/26 02:27:35;;;;;;;1.70;1.17;;;;;;;;;;5039059;28;93240;-49
2022/07/26 02:30:04;;;;;;;1.13;0.70;;;;;;;;;;5039268;28;93838;-49
2022/07/26 02:32:33;;;;;;;1.30;0.90;;;;;;;;;;5040149;28;92033;-50
2022/07/26 02:35:02;;;;;;;1.07;0.90;;;;;;;;;;5040722;28;92083;-50
2022/07/26 02:37:30;;;;;;;2.03;1.13;;;;;;;;;;5039643;28;94095;-51
2022/07/26 02:40:05;;;;;;;2.53;1.17;;;;;;;;;;5040958;28;93544;-50
2022/07/26 02:42:33;;;;;;;1.77;1.00;;;;;;;;;;5039802;28;91851;-49
2022/07/26 02:45:01;;;;;;;0.93;0.87;;;;;;;;;;5039609;28;92078;-49
2022/07/26 02:47:31;;;;;;;1.83;1.10;;;;;;;;;;5039710;28;94203;-50
2022/07/26 02:50:01;;;;;;;1.40;1.10;;;;;;;;;;5039826;28;93035;-50
2022/07/26 02:52:29;;;;;;;1.63;1.47;;;;;;;;;;5040370;28;91738;-50
2022/07/26 02:54:58;;;;;;;3.97;1.57;;;;;;;;;;5040311;28;91343;-49
2022/07/26 02:57:26;;;;;;;3.37;1.63;;;;;;;;;;5039437;28;93326;-50
2022/07/26 02:59:55;;;;;;;1.57;1.10;;;;;;;;;;5039208;28;92623;-49
2022/07/26 03:02:23;;;;;;;1.63;1.33;;;;;;;;;;5038694;28;93087;-50
2022/07/26 03:04:51;;;;;;;3.60;1.27;;;;;;;;;;5039432;28;91961;-49
2022/07/26 03:07:21;;;;;;;2.40;1.30;;;;;;;;;;5037487;28;94133;-49
2022/07/26 03:09:49;;;;;;;1.47;1.23;;;;;;;;;;5037237;28;94063;-49
2022/07/26 03:12:18;;;;;;;2.17;1.67;;;;;;;;;;5038406;28;92367;-49
2022/07/26 03:14:46;;;;;;;4.17;2.40;;;;;;;;;;5038515;28;92046;-49
2022/07/26 03:17:14;;;;;;;2.43;1.73;;;;;;;;;;5038013;28;93303;-49
2022/07/26 03:19:43;;;;;;;3.97;2.83;;;;;;;;;;5038213;28;92514;-49
2022/07/26 03:22:12;;;;;;;3.57;2.70;;;;;;;;;;5038710;28;91925;-49
2022/07/26 03:24:41;;;;;;;4.90;2.60;;;;;;;;;;5037601;27;92036;-49
2022/07/26 03:27:10;;;;;;;3.33;2.40;;;;;;;;;;5037859;28;94168;-48
2022/07/26 03:29:38;;;;;;;5.10;2.50;;;;;;;;;;5038417;28;93907;-50
2022/07/26 03:32:07;;;;;;;5.47;2.80;;;;;;;;;;5038922;28;91988;-49
2022/07/26 03:34:36;;;;;;;3.33;2.60;;;;;;;;;;5039180;28;91986;-49
2022/07/26 03:37:04;;;;;;;2.13;1.93;;;;;;;;;;5038856;28;93272;-49
2022/07/26 03:39:32;;;;;;;3.27;2.30;;;;;;;;;;5039151;28;92956;-50
2022/07/26 03:42:02;;;;;;;4.00;2.40;;;;;;;;;;5039568;28;91958;-50
2022/07/26 03:44:30;;;;;;;3.17;2.57;;;;;;;;;;5039968;28;91187;-50
2022/07/26 03:46:58;;;;;;;4.17;2.90;;;;;;;;;;5039417;28;94172;-50
2022/07/26 03:49:27;;;;;;;5.27;3.40;;;;;;;;;;5039045;28;92066;-50
2022/07/26 03:51:55;;;;;;;2.57;2.37;;;;;;;;;;5039420;28;92841;-49
2022/07/26 03:54:23;;;;;;;6.30;3.70;;;;;;;;;;5039658;28;92053;-50
2022/07/26 03:56:51;;;;;;;5.60;3.70;;;;;;;;;;5038728;28;94087;-50
2022/07/26 03:59:22;;;;;;;4.80;3.30;;;;;;;;;;5038983;28;93901;-49
2022/07/26 04:01:51;;;;;;;6.07;2.87;;;;;;;;;;5038789;28;92051;-49
2022/07/26 04:04:19;;;;;;;2.27;1.97;;;;;;;;;;5039091;28;92011;-50
2022/07/26 04:06:55;;;;;;;3.27;2.50;;;;;;;;;;5038676;28;94114;-50
2022/07/26 04:09:23;;;;;;;6.57;2.63;;;;;;;;;;5038717;28;91592;-49
2022/07/26 04:11:52;;;;;;;3.73;2.70;;;;;;;;;;5038624;28;92112;-49
2022/07/26 04:14:21;;;;;;;4.70;3.23;;;;;;;;;;5038512;28;92100;-49
2022/07/26 04:16:49;;;;;;;3.90;2.80;;;;;;;;;;5037501;28;95362;-51
2022/07/26 04:19:18;;;;;;;3.93;2.80;;;;;;;;;;5038089;28;93535;-49
2022/07/26 04:21:46;;;;;;;3.17;2.77;;;;;;;;;;5038362;28;92049;-50
2022/07/26 04:24:14;;;;;;;5.43;3.10;;;;;;;;;;5038263;28;92091;-49
2022/07/26 04:26:43;;;;;;;4.17;2.57;;;;;;;;;;5037851;28;94218;-49
2022/07/26 04:29:11;;;;;;;5.37;2.93;;;;;;;;;;5038131;28;93891;-49
2022/07/26 04:31:41;;;;;;;5.13;3.33;;;;;;;;;;5038347;28;92133;-49
2022/07/26 04:34:09;;;;;;;3.27;2.50;;;;;;;;;;5039349;28;91305;-49
2022/07/26 04:36:38;;;;;;;4.43;2.80;;;;;;;;;;5041287;27;94076;-49
2022/07/26 04:39:06;;;;;;;2.77;2.33;;;;;;;;;;5041206;28;92817;-49
2022/07/26 04:41:35;;;;;;;3.13;2.23;;;;;;;;;;5041770;28;93005;-50
2022/07/26 04:44:03;;;;;;;4.23;2.10;;;;;;;;;;5041663;28;92071;-50
2022/07/26 04:46:32;;;;;;;3.67;2.67;;;;;;;;;;5041782;28;93080;-50
2022/07/26 04:49:01;;;;;;;2.93;2.23;;;;;;;;;;5041658;28;93778;-50
2022/07/26 04:51:30;;;;;;;2.93;1.83;;;;;;;;;;5041813;28;92074;-50
2022/07/26 04:53:58;;;;;;;3.97;2.00;;;;;;;;;;5041661;28;92028;-51
2022/07/26 04:56:27;;;;;;;3.53;1.90;;;;;;;;;;5041229;28;93407;-49
2022/07/26 04:58:55;;;;;;;2.63;1.93;;;;;;;;;;5041718;28;93812;-49
2022/07/26 05:01:24;;;;;;;2.00;1.60;;;;;;;;;;5041544;28;91928;-50
2022/07/26 05:03:52;;;;;;;3.57;2.37;;;;;;;;;;5041525;28;92064;-50
2022/07/26 05:06:22;;;;;;;2.10;1.90;;;;;;;;;;5040824;28;95266;-51
2022/07/26 05:08:51;;;;;;;1.63;1.53;;;;;;;;;;5040884;28;94709;-49
2022/07/26 05:11:19;;;;;;;4.57;2.00;;;;;;;;;;5041367;28;92069;-49
2022/07/26 05:13:47;;;;;;;3.93;2.13;;;;;;;;;;5040554;28;92080;-51
2022/07/26 05:16:16;;;;;;;1.20;1.13;;;;;;;;;;5040513;28;93089;-51
2022/07/26 05:18:45;;;;;;;3.67;1.77;;;;;;;;;;5041359;28;92685;-50
2022/07/26 05:21:17;;;;;;;2.40;1.83;;;;;;;;;;5041706;28;91927;-49
2022/07/26 05:23:46;;;;;;;2.27;1.43;;;;;;;;;;5041837;28;91332;-49
2022/07/26 05:26:15;;;;;;;2.47;1.50;;;;;;;;;;5041155;28;95288;-49
2022/07/26 05:28:43;;;;;;;2.53;1.50;;;;;;;;;;5041120;28;92826;-49
2022/07/26 05:31:11;;;;;;;1.07;1.03;;;;;;;;;;5040517;28;92721;-49
2022/07/26 05:33:40;;;;;;;1.87;1.17;;;;;;;;;;5041158;28;92054;-49
2022/07/26 05:36:08;;;;;;;1.70;1.43;;;;;;;;;;5040879;28;94263;-49
2022/07/26 05:38:36;;;;;;;1.50;1.20;;;;;;;;;;5040459;28;93093;-49
2022/07/26 05:41:06;;;;;;;1.37;1.27;;;;;;;;;;5040879;28;92029;-49
2022/07/26 05:43:35;;;;;;;1.83;1.00;;;;;;;;;;5040866;28;91967;-49
2022/07/26 05:46:09;;;;;;;2.73;1.47;;;;;;;;;;5040793;28;93076;-49
2022/07/26 05:48:37;;;;;;;1.60;1.20;;;;;;;;;;5039762;28;93793;-50
2022/07/26 05:51:06;;;;;;;2.20;0.90;;;;;;;;;;5040898;28;92008;-49
2022/07/26 05:53:34;;;;;;;1.30;1.00;;;;;;;;;;5040721;28;92103;-49
2022/07/26 05:56:02;;;;;;;1.70;1.07;;;;;;;;;;5039042;28;94085;-49
2022/07/26 05:58:32;;;;;;;1.40;0.90;;;;;;;;;;5039766;28;93697;-49
2022/07/26 06:01:00;;;;;;;0.90;0.90;;;;;;;;;;5040007;28;92152;-49
2022/07/26 06:03:30;;;;;;;1.70;0.70;;;;;;;;;;5040833;28;92136;-49
2022/07/26 06:05:59;;;;;;;0.70;0.70;;;;;;;;;;5040572;28;94337;-49
2022/07/26 06:08:27;;;;;;;1.67;0.80;;;;;;;;;;5040174;28;94101;-49
2022/07/26 06:10:55;;;;;;;0.70;0.70;;;;;;;;;;5040455;28;92001;-49
2022/07/26 06:13:24;;;;;;;0.57;0.57;;;;;;;;;;5041078;28;91116;-49
2022/07/26 06:15:53;;;;;;;0.70;0.70;;;;;;;;;;5040045;28;94467;-50
2022/07/26 06:18:22;;;;;;;0.80;0.70;;;;;;;;;;5039902;28;94019;-49
2022/07/26 06:20:50;;;;;;;0.33;0.33;;;;;;;;;;5040007;28;92852;-50
2022/07/26 06:23:18;;;;;;;0.67;0.67;;;;;;;;;;5040655;28;92031;-49
2022/07/26 06:26:02;;;;;;;0.80;0.67;;;;;;;;;;5039564;28;94330;-49
2022/07/26 06:28:30;;;;;;;1.37;0.67;;;;;;;;;;5040110;28;93879;-49
2022/07/26 06:30:59;;;;;;;0.60;0.50;;;;;;;;;;5039919;28;92070;-51
2022/07/26 06:33:28;;;;;;;0.80;0.60;;;;;;;;;;5040555;28;92010;-49
2022/07/26 06:35:56;;;;;;;0.80;0.80;;;;;;;;;;5040094;28;93242;-49
2022/07/26 06:38:24;;;;;;;1.17;0.90;;;;;;;;;;5032460;28;93015;-49
2022/07/26 06:40:53;;;;;;;1.30;0.93;;;;;;;;;;5040455;28;92037;-50
2022/07/26 06:43:21;;;;;;;1.00;0.90;;;;;;;;;;5040174;28;92046;-49
2022/07/26 06:45:49;;;;;;;0.97;0.67;;;;;;;;;;5039151;28;94157;-49
2022/07/26 06:48:19;;;;;;;0.93;0.57;;;;;;;;;;5039918;28;94729;-49
2022/07/26 06:50:48;;;;;;;0.90;0.70;;;;;;;;;;5040607;28;92177;-49
2022/07/26 06:53:17;;;;;;;0.90;0.43;;;;;;;;;;5040011;28;91989;-49
2022/07/26 06:55:45;;;;;;;0.60;0.53;;;;;;;;;;5038948;28;94345;-49
2022/07/26 06:58:13;;;;;;;0.70;0.60;;;;;;;;;;5039028;27;92089;-49
2022/07/26 07:00:42;;;;;;;0.93;0.77;;;;;;;;;;5039547;28;92015;-49
2022/07/26 07:03:11;;;;;;;0.60;0.50;;;;;;;;;;5040465;28;91354;-49
2022/07/26 07:05:41;;;;;;;1.23;0.90;;;;;;;;;;5039666;28;94210;-49
2022/07/26 07:08:16;;;;;;;0.50;0.50;;;;;;;;;;5039169;28;92744;-49
2022/07/26 07:10:45;;;;;;;0.37;0.37;;;;;;;;;;5039412;28;92897;-49
2022/07/26 07:13:13;;;;;;;0.40;0.30;;;;;;;;;;5039555;28;91988;-49
2022/07/26 07:15:41;;;;;;;2.23;0.80;;;;;;;;;;5039067;28;93152;-49
2022/07/26 07:18:10;;;;;;;1.70;0.60;;;;;;;;;;5039669;28;93829;-49
2022/07/26 07:20:40;;;;;;;0.40;0.37;;;;;;;;;;5040035;28;92060;-49
2022/07/26 07:23:08;;;;;;;0.83;0.47;;;;;;;;;;5040030;28;92067;-49
2022/07/26 07:25:37;;;;;;;0.53;0.47;;;;;;;;;;5039050;28;93016;-51
2022/07/26 07:28:07;;;;;;;1.40;0.50;;;;;;;;;;5039257;28;92697;-49
2022/07/26 07:30:35;;;;;;;1.23;0.50;;;;;;;;;;5039183;28;92047;-49
2022/07/26 07:33:06;;;;;;;0.47;0.47;;;;;;;;;;5039192;28;92029;-49
2022/07/26 07:35:34;;;;;;;1.17;0.30;;;;;;;;;;5038495;28;94266;-49
2022/07/26 07:38:04;;;;;;;1.13;0.67;;;;;;;;;;5039456;28;94929;-49
2022/07/26 07:40:33;;;;;;;1.10;0.60;;;;;;;;;;5039508;28;91954;-49
2022/07/26 07:43:01;;;;;;;0.27;0.27;;;;;;;;;;5039688;28;92077;-49
2022/07/26 07:45:29;;;;;;;0.30;0.30;;;;;;;;;;5038876;28;93311;-49
2022/07/26 07:47:58;;;;;;;0.53;0.50;;;;;;;;;;5038961;28;92047;-50
2022/07/26 07:50:26;;;;;;;0.43;0.43;;;;;;;;;;5039254;28;91947;-49
2022/07/26 07:52:55;;;;;;;0.50;0.50;;;;;;;;;;5039893;28;91200;-50
2022/07/26 07:55:27;;;;;;;0.30;0.30;;;;;;;;;;5038993;28;93009;-49
2022/07/26 07:58:14;;;;;;;0.30;0.30;;;;;;;;;;5039087;28;93824;-49
2022/07/26 08:00:44;;;;;;;1.20;0.50;;;;;;;;;;5038721;28;92983;-50
2022/07/26 08:03:15;;;;;;;0.43;0.30;;;;;;;;;;5039071;28;92075;-49
2022/07/26 08:05:46;;;;;;;1.23;0.43;;;;;;;;;;5038637;28;94142;-49
2022/07/26 08:08:18;;;;;;;0.97;0.40;;;;;;;;;;5038659;28;93883;-49
2022/07/26 08:10:51;;;;;;;3.73;0.50;;;;;;;;;;5040142;28;92185;-49
2022/07/26 08:13:20;;;;;;;0.40;0.40;;;;;;;;;;5042290;28;92095;-50
2022/07/26 08:15:49;;;;;;;1.37;0.33;;;;;;;;;;5042017;28;93061;-50
2022/07/26 08:18:17;;;;;;;0.70;0.60;;;;;;;;;;5042704;28;92745;-50
2022/07/26 08:20:49;;;;;;;0.60;0.57;;;;;;;;;;5042467;28;91890;-49
2022/07/26 08:23:18;;;;;;;1.00;0.27;;;;;;;;;;5042736;28;92022;-49
2022/07/26 08:25:46;;;;;;;2.27;0.60;;;;;;;;;;5041111;28;95171;-51
2022/07/26 08:28:25;;;;;;;1.83;0.50;;;;;;;;;;5041841;28;94925;-49
2022/07/26 08:31:14;;;;;;;0.43;0.43;;;;;;;;;;5041944;28;91922;-49
2022/07/26 08:33:42;;;;;;;1.07;0.40;;;;;;;;;;5041962;28;92060;-49
2022/07/26 08:36:13;;;;;;;0.37;0.30;;;;;;;;;;5042094;28;93124;-50
2022/07/26 08:38:42;;;;;;;0.40;0.40;;;;;;;;;;5041810;28;93859;-49
2022/07/26 08:41:10;;;;;;;0.60;0.43;;;;;;;;;;5042098;28;92020;-50
2022/07/26 08:43:40;;;;;;;0.33;0.30;;;;;;;;;;5042671;28;91329;-51
2022/07/26 08:46:20;;;;;;;0.20;0.20;;;;;;;;;;5041787;28;94108;-49
2022/07/26 08:48:52;;;;;;;0.10;0.10;;;;;;;;;;5041367;28;93058;-49
2022/07/26 08:51:21;;;;;;;2.73;0.47;;;;;;;;;;5041195;28;92899;-49
2022/07/26 08:53:49;;;;;;;0.67;0.60;;;;;;;;;;5041812;28;91959;-50
2022/07/26 08:56:17;;;;;;;0.50;0.20;;;;;;;;;;5041774;28;94261;-49
2022/07/26 08:58:47;;;;;;;0.20;0.20;;;;;;;;;;5041564;28;92894;-49
2022/07/26 09:01:15;;;;;;;1.13;0.50;;;;;;;;;;5041787;28;91950;-49
2022/07/26 09:03:44;;;;;;;0.97;0.30;;;;;;;;;;5042002;28;92050;-51
2022/07/26 09:06:16;;;;;;;0.30;0.20;;;;;;;;;;5041580;28;94041;-50
2022/07/26 09:08:45;;;;;;;0.73;0.20;;;;;;;;;;5041657;28;92948;-50
2022/07/26 09:11:26;;;;;;;0.20;0.20;;;;;;;;;;5041491;28;92066;-49
2022/07/26 09:13:57;;;;;;;0.30;0.30;;;;;;;;;;5021156;28;92056;-49
2022/07/26 09:16:25;;;;;;;0.40;0.20;;;;;;;;;;5020608;28;94220;-50
2022/07/26 09:18:53;;;;;;;0.57;0.20;;;;;;;;;;5020763;28;94962;-49
2022/07/26 09:21:28;;;;;;;0.30;0.30;;;;;;;;;;5004356;28;92095;-49
2022/07/26 09:23:57;;;;;;;2.27;0.30;;;;;;;;;;5021026;28;92070;-50
2022/07/26 09:26:25;;;;;;;0.70;0.33;;;;;;;;;;5021210;28;92988;-50
2022/07/26 09:29:03;;;;;;;0.33;0.30;;;;;;;;;;5020691;28;93884;-49
2022/07/26 09:31:32;;;;;;;1.70;0.20;;;;;;;;;;5021251;28;92032;-50
2022/07/26 09:34:00;;;;;;;0.87;0.33;;;;;;;;;;5021871;28;91331;-50
2022/07/26 09:36:28;;;;;;;0.30;0.30;;;;;;;;;;5020883;28;94260;-50
2022/07/26 09:38:57;;;;;;;1.13;0.20;;;;;;;;;;5020737;28;92931;-51
2022/07/26 09:41:26;;;;;;;0.20;0.20;;;;;;;;;;5020196;28;92850;-50
2022/07/26 09:43:55;;;;;;;0.53;0.20;;;;;;;;;;5021052;28;92092;-49
2022/07/26 09:46:25;;;;;;;1.13;0.27;;;;;;;;;;5020666;28;94231;-49
2022/07/26 09:48:55;;;;;;;2.17;0.37;;;;;;;;;;5020634;28;93748;-49
2022/07/26 09:51:40;;;;;;;2.47;0.53;;;;;;;;;;5020808;28;91977;-49
2022/07/26 09:54:08;;;;;;;0.47;0.20;;;;;;;;;;5021217;28;92093;-49
2022/07/26 09:56:44;;;;;;;0.20;0.20;;;;;;;;;;5019973;28;93141;-49
2022/07/26 09:59:12;;;;;;;1.37;0.27;;;;;;;;;;5020362;28;92739;-50
2022/07/26 10:01:42;;;;;;;0.93;0.30;;;;;;;;;;5020279;28;92055;-49
2022/07/26 10:04:11;;;;;;;0.33;0.33;;;;;;;;;;5020557;28;92027;-49
2022/07/26 10:06:39;;;;;;;0.50;0.30;;;;;;;;;;5018806;28;94379;-50
2022/07/26 10:09:08;;;;;;;2.90;0.33;;;;;;;;;;5019798;28;95138;-49
2022/07/26 10:11:37;;;;;;;0.10;0.10;;;;;;;;;;5022922;28;91953;-49
2022/07/26 10:14:24;;;;;;;0.50;0.50;;;;;;;;;;5040727;28;91954;-49
2022/07/26 10:16:54;;;;;;;0.93;0.50;;;;;;;;;;5040011;28;93331;-50
2022/07/26 10:19:37;;;;;;;0.20;0.20;;;;;;;;;;5040224;28;92944;-49
2022/07/26 10:22:29;;;;;;;0.83;0.50;;;;;;;;;;5040898;28;91990;-50
2022/07/26 10:24:57;;;;;;;1.27;0.50;;;;;;;;;;5039238;28;91378;-49
2022/07/26 10:27:38;;;;;;;0.47;0.30;;;;;;;;;;5039202;28;93206;-51
2022/07/26 10:30:21;;;;;;;0.27;0.20;;;;;;;;;;5040252;28;92857;-49
2022/07/26 10:32:59;;;;;;;0.37;0.20;;;;;;;;;;5039106;27;92975;-50
2022/07/26 10:35:31;;;;;;;0.20;0.20;;;;;;;;;;5040822;28;92019;-50
2022/07/26 10:37:59;;;;;;;1.93;0.47;;;;;;;;;;5040105;28;92725;-49
2022/07/26 10:40:29;;;;;;;0.27;0.27;;;;;;;;;;5039681;28;92824;-51
2022/07/26 10:43:07;;;;;;;0.20;0.20;;;;;;;;;;5039830;28;91936;-50
2022/07/26 10:46:10;;;;;;;1.40;0.27;;;;;;;;;;5039804;28;92082;-51
2022/07/26 10:48:48;;;;;;;0.37;0.20;;;;;;;;;;5039191;28;94113;-50
2022/07/26 10:51:24;;;;;;;0.33;0.30;;;;;;;;;;5040474;28;93238;-49
2022/07/26 10:53:59;;;;;;;0.40;0.30;;;;;;;;;;5040585;28;91908;-49
2022/07/26 10:56:28;;;;;;;0.83;0.20;;;;;;;;;;5039419;28;92659;-49
2022/07/26 10:59:00;;;;;;;0.20;0.20;;;;;;;;;;5039119;28;93924;-49
2022/07/26 11:01:33;;;;;;;0.20;0.20;;;;;;;;;;5039194;28;92605;-49
2022/07/26 11:04:03;;;;;;;0.47;0.10;;;;;;;;;;5039926;28;91865;-49
2022/07/26 11:06:31;;;;;;;0.20;0.20;;;;;;;;;;5039186;28;91908;-48
2022/07/26 11:09:00;;;;;;;1.60;0.17;;;;;;;;;;5039282;28;93171;-50
2022/07/26 11:11:29;;;;;;;2.23;0.20;;;;;;;;;;5038770;28;92895;-50
2022/07/26 11:14:07;;;;;;;0.10;0.10;;;;;;;;;;5039355;28;91779;-49
2022/07/26 11:16:39;;;;;;;0.10;0.10;;;;;;;;;;5040184;28;91357;-50
2022/07/26 11:19:16;;;;;;;0.10;0.10;;;;;;;;;;5039247;28;94231;-51
2022/07/26 11:21:44;;;;;;;0.40;0.30;;;;;;;;;;5038802;28;96497;-50
2022/07/26 11:24:13;;;;;;;0.20;0.20;;;;;;;;;;5039442;28;92928;-49
2022/07/26 11:26:42;;;;;;;0.23;0.20;;;;;;;;;;5038987;28;92111;-49
2022/07/26 11:29:10;;;;;;;0.20;0.20;;;;;;;;;;5038922;28;93312;-49
2022/07/26 11:31:45;;;;;;;0.10;0.10;;;;;;;;;;5038586;28;93828;-49
2022/07/26 11:34:28;;;;;;;1.80;0.67;;;;;;;;;;5039513;28;92040;-49
2022/07/26 11:36:57;;;;;;;0.30;0.20;;;;;;;;;;5039480;28;91920;-50
2022/07/26 11:39:25;;;;;;;0.30;0.20;;;;;;;;;;5039376;28;93077;-50
2022/07/26 11:41:57;;;;;;;0.73;0.40;;;;;;;;;;5039651;28;94063;-49
2022/07/26 11:44:25;;;;;;;0.97;0.20;;;;;;;;;;5039162;27;92063;-51
2022/07/26 11:46:54;;;;;;;0.20;0.20;;;;;;;;;;5038654;28;91979;-50
2022/07/26 11:49:23;;;;;;;0.20;0.20;;;;;;;;;;5038628;28;94179;-50
2022/07/26 11:52:13;;;;;;;0.20;0.20;;;;;;;;;;5038180;28;96183;-49
2022/07/26 11:54:44;;;;;;;0.40;0.20;;;;;;;;;;5039120;28;91919;-51
2022/07/26 11:57:13;;;;;;;0.20;0.20;;;;;;;;;;5038614;28;92021;-49
2022/07/26 11:59:41;;;;;;;0.93;0.27;;;;;;;;;;5038607;28;92146;-50
2022/07/26 12:02:09;;;;;;;1.43;0.33;;;;;;;;;;5038033;28;93866;-49
2022/07/26 12:04:38;;;;;;;0.20;0.20;;;;;;;;;;5039104;28;91937;-50
2022/07/26 12:07:09;;;;;;;1.13;0.40;;;;;;;;;;5039015;28;91214;-49
2022/07/26 12:09:39;;;;;;;0.30;0.20;;;;;;;;;;5038967;28;92103;-49
2022/07/26 12:12:08;;;;;;;0.30;0.20;;;;;;;;;;5037572;28;93181;-50
2022/07/26 12:14:36;;;;;;;0.10;0.10;;;;;;;;;;5038335;28;93601;-50
2022/07/26 12:17:11;;;;;;;0.13;0.13;;;;;;;;;;5039186;28;92123;-51
2022/07/26 12:19:40;;;;;;;0.30;0.30;;;;;;;;;;5038393;28;93120;-51
2022/07/26 12:22:09;;;;;;;1.70;0.40;;;;;;;;;;5038588;28;94056;-49
2022/07/26 12:24:43;;;;;;;0.10;0.10;;;;;;;;;;5039366;28;91884;-50
2022/07/26 12:27:12;;;;;;;0.40;0.30;;;;;;;;;;5038763;28;92114;-50
2022/07/26 12:29:41;;;;;;;1.93;0.20;;;;;;;;;;5038122;28;93245;-51
2022/07/26 12:32:11;;;;;;;0.30;0.10;;;;;;;;;;5037967;28;92926;-51
2022/07/26 12:34:40;;;;;;;1.30;0.47;;;;;;;;;;5038938;28;92014;-50
2022/07/26 12:37:15;;;;;;;0.60;0.20;;;;;;;;;;5037657;28;92185;-51
2022/07/26 12:39:59;;;;;;;0.10;0.10;;;;;;;;;;5037295;28;94294;-49
2022/07/26 12:42:29;;;;;;;0.40;0.30;;;;;;;;;;5037533;28;93834;-49
2022/07/26 12:45:01;;;;;;;2.03;0.20;;;;;;;;;;5038914;28;92094;-49
2022/07/26 12:47:29;;;;;;;0.20;0.20;;;;;;;;;;5038405;28;92118;-49
2022/07/26 12:49:59;;;;;;;0.10;0.10;;;;;;;;;;5037737;28;93254;-49
2022/07/26 12:52:27;;;;;;;0.87;0.20;;;;;;;;;;5038090;28;92873;-49
2022/07/26 12:54:57;;;;;;;0.90;0.53;;;;;;;;;;5038728;28;91987;-49
2022/07/26 12:57:26;;;;;;;0.20;0.20;;;;;;;;;;5041304;27;91324;-49
2022/07/26 12:59:54;;;;;;;0.77;0.17;;;;;;;;;;5041596;28;93135;-49
2022/07/26 13:02:22;;;;;;;0.20;0.20;;;;;;;;;;5041169;28;92926;-50
2022/07/26 13:04:51;;;;;;;0.10;0.10;;;;;;;;;;5042019;28;93334;-51
2022/07/26 13:07:26;;;;;;;0.30;0.30;;;;;;;;;;5041503;28;92061;-50
2022/07/26 13:09:56;;;;;;;0.83;0.43;;;;;;;;;;5041617;28;92809;-50
2022/07/26 13:12:45;;;;;;;0.20;0.20;;;;;;;;;;5040870;28;92612;-49
2022/07/26 13:15:13;;;;;;;0.20;0.20;;;;;;;;;;5042168;28;92046;-49
2022/07/26 13:17:41;;;;;;;0.37;0.30;;;;;;;;;;5041693;28;92106;-50
2022/07/26 13:20:10;;;;;;;0.10;0.10;;;;;;;;;;5040980;28;93122;-50
2022/07/26 13:22:38;;;;;;;0.20;0.20;;;;;;;;;;5041603;28;93888;-50
2022/07/26 13:25:08;;;;;;;0.27;0.20;;;;;;;;;;5040745;28;92058;-49
2022/07/26 13:27:38;;;;;;;2.40;0.63;;;;;;;;;;5041033;28;92085;-50
2022/07/26 13:30:12;;;;;;;0.20;0.20;;;;;;;;;;5040699;28;94142;-51
2022/07/26 13:32:40;;;;;;;0.23;0.17;;;;;;;;;;5040679;28;96123;-50
2022/07/26 13:35:09;;;;;;;0.20;0.17;;;;;;;;;;5041286;28;91892;-50
2022/07/26 13:37:38;;;;;;;0.17;0.13;;;;;;;;;;5041435;28;91925;-51
2022/07/26 13:40:08;;;;;;;1.83;0.47;;;;;;;;;;5040445;28;93133;-50
2022/07/26 13:42:37;;;;;;;1.40;0.30;;;;;;;;;;5040975;28;94144;-49
2022/07/26 13:45:05;;;;;;;0.10;0.10;;;;;;;;;;5041375;28;91886;-49
2022/07/26 13:47:34;;;;;;;0.63;0.40;;;;;;;;;;5041425;28;91295;-49
2022/07/26 13:50:02;;;;;;;0.20;0.20;;;;;;;;;;5040696;28;94187;-49
2022/07/26 13:52:30;;;;;;;0.17;0.17;;;;;;;;;;5039223;28;92929;-50
2022/07/26 13:54:58;;;;;;;1.30;0.20;;;;;;;;;;5039851;28;92957;-49
2022/07/26 13:57:28;;;;;;;0.20;0.20;;;;;;;;;;5041141;28;92006;-50
2022/07/26 14:00:16;;;;;;;1.93;0.53;;;;;;;;;;5040415;28;93062;-49
2022/07/26 14:02:45;;;;;;;0.73;0.30;;;;;;;;;;5040500;28;92762;-50
2022/07/26 14:05:13;;;;;;;1.57;0.60;;;;;;;;;;5040380;28;92052;-50
2022/07/26 14:07:42;;;;;;;0.20;0.20;;;;;;;;;;5040288;28;92052;-49
2022/07/26 14:10:10;;;;;;;0.43;0.40;;;;;;;;;;5039688;28;93176;-49
2022/07/26 14:12:40;;;;;;;0.80;0.43;;;;;;;;;;5040467;28;93249;-50
2022/07/26 14:15:09;;;;;;;0.13;0.13;;;;;;;;;;5040735;28;92039;-49
2022/07/26 14:17:45;;;;;;;0.43;0.20;;;;;;;;;;5040766;28;92028;-48
2022/07/26 14:20:15;;;;;;;0.13;0.13;;;;;;;;;;5040032;28;93944;-49
2022/07/26 14:22:44;;;;;;;0.40;0.30;;;;;;;;;;5040072;28;93623;-50
2022/07/26 14:25:12;;;;;;;0.23;0.20;;;;;;;;;;5040382;28;92197;-49
2022/07/26 14:27:42;;;;;;;0.40;0.40;;;;;;;;;;5040190;28;92058;-51
2022/07/26 14:30:11;;;;;;;1.97;0.60;;;;;;;;;;5039768;28;93200;-49
2022/07/26 14:32:39;;;;;;;1.63;0.60;;;;;;;;;;5039488;28;92806;-49
2022/07/26 14:35:08;;;;;;;1.37;0.83;;;;;;;;;;5039515;28;92102;-49
2022/07/26 14:37:36;;;;;;;0.77;0.77;;;;;;;;;;5040664;28;91296;-49
2022/07/26 14:40:13;;;;;;;0.60;0.60;;;;;;;;;;5039732;28;93268;-49
2022/07/26 14:42:43;;;;;;;1.30;1.20;;;;;;;;;;5039061;28;94071;-49
2022/07/26 14:45:11;;;;;;;1.07;0.90;;;;;;;;;;5039368;28;93006;-49
2022/07/26 14:47:39;;;;;;;1.10;0.90;;;;;;;;;;5038680;28;92125;-49
2022/07/26 14:50:08;;;;;;;2.80;1.00;;;;;;;;;;5039943;28;94208;-49
2022/07/26 14:52:37;;;;;;;1.77;1.23;;;;;;;;;;5038449;28;93042;-49
2022/07/26 14:55:06;;;;;;;1.47;1.17;;;;;;;;;;5040018;28;91876;-50
2022/07/26 14:57:34;;;;;;;2.30;1.20;;;;;;;;;;5040038;28;91942;-49
2022/07/26 15:00:09;;;;;;;2.13;1.23;;;;;;;;;;5039274;28;94151;-49